Terminal Aerodrome Forecast
Issued by NWS

Home | Current Version | Previous Version | Text Only | Print | Product List | Glossary On
Versions: 1 2 3 4 5 6 7 8 9 10 11 12 13 14 15 16 17 18 19 20
000
FTUS43 KMKX 032340
TAFENW
TAF
KENW 032340Z 0400/0424 00000KT P6SM BKN035
     FM041400 17004KT 3SM -SN OVC035
     FM041700 16006KT 1SM -SN OVC010
     FM041800 17007KT 1SM -SN OVC008=

USA.gov is the U.S. government's official web portal to all federal, state and local government web resources and services.